Terminal Aerodrome Forecast
Issued by NWS

Home | Current Version | Previous Version | Text Only | Print | Product List | Glossary On
Versions: 1 2 3 4 5 6 7 8 9 10 11 12 13 14 15 16 17 18 19 20 21 22 23 24 25 26 27 28 29 30 31 32 33 34 35 36 37 38 39 40 41 42 43 44 45 46 47 48 49
000
FTUS41 KBOX 030309 AAA
TAFMHT
TAF AMD
KMHT 030309Z 0303/0324 18005KT P6SM BKN250
     FM030500 20005KT 6SM -SHRA SCT040 OVC100
     FM030700 24005KT 3SM BR BKN040
     FM030800 29005KT P6SM BKN025
     FM031000 32006KT P6SM BKN050
     FM031200 32007KT P6SM SCT250=

USA.gov is the U.S. government's official web portal to all federal, state and local government web resources and services.